Terminal Aerodrome Forecast
Issued by NWS Blacksburg, VA

Home | Current Version | Previous Version | Text Only | Print | Product List | Glossary On
Versions: 1 2 3 4 5 6 7 8 9 10 11 12 13 14 15 16 17 18 19 20 21 22 23 24 25 26 27 28 29 30 31 32 33 34 35 36 37 38 39 40 41 42 43 44 45 46
000
FTUS41 KRNK 201350 AAA
TAFDAN
TAF AMD
KDAN 201350Z 2014/2112 VRB03KT P6SM SCT018 BKN050
      TEMPO 2014/2015 BKN007
     FM202000 23006KT P6SM VCTS BKN060CB
     FM210100 VRB03KT P6SM BKN080
     FM210600 00000KT 2SM BR SCT100=

USA.gov is the U.S. government's official web portal to all federal, state and local government web resources and services.